PS47 weather

Hamilton Hill Airport
Ebensburg, Pennsylvania, United States

Public forecast

Using degrees Fahrenheit for public forecast. Weather courtesy of forecast.io.

Closest aviation weather report (METAR) to Hamilton Hill Airport

Closest report is John Murtha Johnstown Cambria County Airport, 7.9 nm (14.7 km) SSW. Retrieved 2019/11/17 10:54 UTC (56 minutes ago):

KJST 171054Z AUTO 14007KT 10SM OVC020 M03/M12 A3018 RMK AO2 SLP246 T10281117

Closest aviation forecast (TAF) to Hamilton Hill Airport

Closest forecast is John Murtha Johnstown Cambria County Airport, 7.9 nm (14.7 km) SSW. Retrieved 2019/11/17 06:22 UTC (5 hours ago):

TAF KJST 170520Z 1706/1806 13007KT P6SM SKC